sensor_id;sensor_type;location;lat;lon;timestamp;temperature;humidity
53643;DHT22;39546;45.534;12.048;2022-12-29T00:01:11;11.50;84.50
53643;DHT22;39546;45.534;12.048;2022-12-29T00:07:13;11.70;84.20
53643;DHT22;39546;45.534;12.048;2022-12-29T00:13:15;11.70;84.50
53643;DHT22;39546;45.534;12.048;2022-12-29T00:19:36;11.90;84.40
53643;DHT22;39546;45.534;12.048;2022-12-29T00:25:56;11.90;84.20
53643;DHT22;39546;45.534;12.048;2022-12-29T00:32:17;11.80;84.10
53643;DHT22;39546;45.534;12.048;2022-12-29T00:38:41;11.80;84.20
53643;DHT22;39546;45.534;12.048;2022-12-29T00:45:04;11.80;83.60
53643;DHT22;39546;45.534;12.048;2022-12-29T00:51:07;11.80;84.00
53643;DHT22;39546;45.534;12.048;2022-12-29T00:57:10;11.70;83.80
53643;DHT22;39546;45.534;12.048;2022-12-29T01:03:12;11.90;84.50
53643;DHT22;39546;45.534;12.048;2022-12-29T01:09:14;11.90;84.90
53643;DHT22;39546;45.534;12.048;2022-12-29T01:15:35;11.70;84.70
53643;DHT22;39546;45.534;12.048;2022-12-29T01:21:37;11.60;84.60
53643;DHT22;39546;45.534;12.048;2022-12-29T01:27:39;11.30;84.80
53643;DHT22;39546;45.534;12.048;2022-12-29T01:33:42;11.40;84.90
53643;DHT22;39546;45.534;12.048;2022-12-29T01:39:44;11.40;85.00
53643;DHT22;39546;45.534;12.048;2022-12-29T01:45:50;11.50;84.50
53643;DHT22;39546;45.534;12.048;2022-12-29T01:52:06;11.30;84.40
53643;DHT22;39546;45.534;12.048;2022-12-29T01:58:11;11.20;84.70
53643;DHT22;39546;45.534;12.048;2022-12-29T02:04:15;11.30;84.60
53643;DHT22;39546;45.534;12.048;2022-12-29T02:10:20;11.30;84.40
53643;DHT22;39546;45.534;12.048;2022-12-29T02:16:52;11.30;84.20
53643;DHT22;39546;45.534;12.048;2022-12-29T02:23:30;11.00;84.40
53643;DHT22;39546;45.534;12.048;2022-12-29T02:36:26;11.20;84.70
53643;DHT22;39546;45.534;12.048;2022-12-29T02:42:36;11.00;84.90
53643;DHT22;39546;45.534;12.048;2022-12-29T02:48:48;11.10;84.80
53643;DHT22;39546;45.534;12.048;2022-12-29T02:54:54;11.20;84.50
53643;DHT22;39546;45.534;12.048;2022-12-29T03:08:05;11.30;84.40
53643;DHT22;39546;45.534;12.048;2022-12-29T03:20:44;10.90;85.10
53643;DHT22;39546;45.534;12.048;2022-12-29T03:26:50;11.00;85.00
53643;DHT22;39546;45.534;12.048;2022-12-29T03:32:59;11.00;84.70
53643;DHT22;39546;45.534;12.048;2022-12-29T03:39:20;11.20;84.50
53643;DHT22;39546;45.534;12.048;2022-12-29T03:45:24;11.30;85.10
53643;DHT22;39546;45.534;12.048;2022-12-29T03:51:26;11.30;85.10
53643;DHT22;39546;45.534;12.048;2022-12-29T03:57:29;11.30;85.00
53643;DHT22;39546;45.534;12.048;2022-12-29T04:03:31;11.30;84.80
53643;DHT22;39546;45.534;12.048;2022-12-29T04:09:33;11.20;84.60
53643;DHT22;39546;45.534;12.048;2022-12-29T04:15:36;10.90;84.90
53643;DHT22;39546;45.534;12.048;2022-12-29T04:21:38;10.80;85.20
53643;DHT22;39546;45.534;12.048;2022-12-29T04:27:40;11.00;85.40
53643;DHT22;39546;45.534;12.048;2022-12-29T04:33:42;11.10;85.40
53643;DHT22;39546;45.534;12.048;2022-12-29T04:39:45;10.80;85.40
53643;DHT22;39546;45.534;12.048;2022-12-29T04:45:47;10.50;85.90
53643;DHT22;39546;45.534;12.048;2022-12-29T04:51:50;10.50;86.20
53643;DHT22;39546;45.534;12.048;2022-12-29T04:57:52;10.70;85.90
53643;DHT22;39546;45.534;12.048;2022-12-29T05:03:55;10.90;85.70
53643;DHT22;39546;45.534;12.048;2022-12-29T05:09:58;11.00;85.50
53643;DHT22;39546;45.534;12.048;2022-12-29T05:16:01;11.00;85.30
53643;DHT22;39546;45.534;12.048;2022-12-29T05:22:03;11.00;85.50
53643;DHT22;39546;45.534;12.048;2022-12-29T05:28:06;10.90;85.40
53643;DHT22;39546;45.534;12.048;2022-12-29T05:34:13;11.00;85.60
53643;DHT22;39546;45.534;12.048;2022-12-29T05:40:15;10.90;85.50
53643;DHT22;39546;45.534;12.048;2022-12-29T05:46:17;10.60;85.80
53643;DHT22;39546;45.534;12.048;2022-12-29T05:52:20;10.40;86.10
53643;DHT22;39546;45.534;12.048;2022-12-29T05:58:21;10.60;86.50
53643;DHT22;39546;45.534;12.048;2022-12-29T06:04:23;10.80;86.30
53643;DHT22;39546;45.534;12.048;2022-12-29T06:10:25;10.70;86.20
53643;DHT22;39546;45.534;12.048;2022-12-29T06:16:28;10.80;86.00
53643;DHT22;39546;45.534;12.048;2022-12-29T06:22:31;10.70;86.00
53643;DHT22;39546;45.534;12.048;2022-12-29T06:28:33;10.70;86.10
53643;DHT22;39546;45.534;12.048;2022-12-29T06:34:35;10.80;86.00
53643;DHT22;39546;45.534;12.048;2022-12-29T06:40:37;10.80;86.50
53643;DHT22;39546;45.534;12.048;2022-12-29T06:46:42;10.90;86.50
53643;DHT22;39546;45.534;12.048;2022-12-29T06:52:44;10.90;86.90
53643;DHT22;39546;45.534;12.048;2022-12-29T06:58:46;10.90;87.10
53643;DHT22;39546;45.534;12.048;2022-12-29T07:04:48;10.90;86.80
53643;DHT22;39546;45.534;12.048;2022-12-29T07:10:50;10.80;86.60
53643;DHT22;39546;45.534;12.048;2022-12-29T07:16:52;10.80;86.70
53643;DHT22;39546;45.534;12.048;2022-12-29T07:22:54;10.50;86.70
53643;DHT22;39546;45.534;12.048;2022-12-29T07:29:04;10.20;87.00
53643;DHT22;39546;45.534;12.048;2022-12-29T07:35:07;10.10;87.20
53643;DHT22;39546;45.534;12.048;2022-12-29T07:41:09;10.10;87.30
53643;DHT22;39546;45.534;12.048;2022-12-29T07:47:11;10.40;87.00
53643;DHT22;39546;45.534;12.048;2022-12-29T07:53:14;10.50;86.70
53643;DHT22;39546;45.534;12.048;2022-12-29T07:59:16;10.50;87.10
53643;DHT22;39546;45.534;12.048;2022-12-29T08:05:18;10.60;87.50
53643;DHT22;39546;45.534;12.048;2022-12-29T08:11:20;10.60;87.40
53643;DHT22;39546;45.534;12.048;2022-12-29T08:17:22;10.40;87.30
53643;DHT22;39546;45.534;12.048;2022-12-29T08:23:24;10.30;87.40
53643;DHT22;39546;45.534;12.048;2022-12-29T08:29:26;10.20;87.40
53643;DHT22;39546;45.534;12.048;2022-12-29T08:35:28;10.30;87.60
53643;DHT22;39546;45.534;12.048;2022-12-29T08:41:30;10.60;87.70
53643;DHT22;39546;45.534;12.048;2022-12-29T08:47:32;10.90;87.60
53643;DHT22;39546;45.534;12.048;2022-12-29T08:53:35;11.10;87.20
53643;DHT22;39546;45.534;12.048;2022-12-29T08:59:37;11.20;87.20
53643;DHT22;39546;45.534;12.048;2022-12-29T09:05:39;11.30;87.00
53643;DHT22;39546;45.534;12.048;2022-12-29T09:11:42;11.30;87.30
53643;DHT22;39546;45.534;12.048;2022-12-29T09:17:44;11.40;87.50
53643;DHT22;39546;45.534;12.048;2022-12-29T09:23:48;11.60;87.50
53643;DHT22;39546;45.534;12.048;2022-12-29T09:29:50;11.60;87.40
53643;DHT22;39546;45.534;12.048;2022-12-29T09:35:54;11.60;87.60
53643;DHT22;39546;45.534;12.048;2022-12-29T09:48:22;11.30;87.50
53643;DHT22;39546;45.534;12.048;2022-12-29T09:54:37;11.20;87.80
53643;DHT22;39546;45.534;12.048;2022-12-29T10:00:50;11.10;87.90
53643;DHT22;39546;45.534;12.048;2022-12-29T10:07:05;11.30;88.20
53643;DHT22;39546;45.534;12.048;2022-12-29T10:19:57;11.50;87.40
53643;DHT22;39546;45.534;12.048;2022-12-29T10:26:04;11.50;88.00
53643;DHT22;39546;45.534;12.048;2022-12-29T10:38:27;11.80;88.00
53643;DHT22;39546;45.534;12.048;2022-12-29T10:44:31;11.90;88.20
53643;DHT22;39546;45.534;12.048;2022-12-29T10:50:35;12.00;88.00
53643;DHT22;39546;45.534;12.048;2022-12-29T10:56:51;11.90;88.40
53643;DHT22;39546;45.534;12.048;2022-12-29T11:09:35;11.90;88.60
53643;DHT22;39546;45.534;12.048;2022-12-29T11:15:41;12.10;88.70
53643;DHT22;39546;45.534;12.048;2022-12-29T11:21:44;12.20;88.50
53643;DHT22;39546;45.534;12.048;2022-12-29T11:28:16;12.20;88.30
53643;DHT22;39546;45.534;12.048;2022-12-29T11:40:47;12.00;88.50
53643;DHT22;39546;45.534;12.048;2022-12-29T11:46:51;11.90;88.70
53643;DHT22;39546;45.534;12.048;2022-12-29T11:53:05;12.10;88.60
53643;DHT22;39546;45.534;12.048;2022-12-29T11:59:36;12.20;88.90
53643;DHT22;39546;45.534;12.048;2022-12-29T12:11:54;12.20;88.60
53643;DHT22;39546;45.534;12.048;2022-12-29T12:18:07;12.20;88.70
53643;DHT22;39546;45.534;12.048;2022-12-29T12:30:46;12.40;88.70
53643;DHT22;39546;45.534;12.048;2022-12-29T13:09:09;12.50;88.90
53643;DHT22;39546;45.534;12.048;2022-12-29T13:28:20;12.60;88.90
53643;DHT22;39546;45.534;12.048;2022-12-29T13:41:04;12.40;89.10
53643;DHT22;39546;45.534;12.048;2022-12-29T14:00:21;12.20;89.30
53643;DHT22;39546;45.534;12.048;2022-12-29T14:06:33;12.00;89.10
53643;DHT22;39546;45.534;12.048;2022-12-29T14:12:40;11.80;89.20
53643;DHT22;39546;45.534;12.048;2022-12-29T14:18:44;11.70;89.20
53643;DHT22;39546;45.534;12.048;2022-12-29T14:24:47;11.70;89.30
53643;DHT22;39546;45.534;12.048;2022-12-29T14:30:52;11.90;89.20
53643;DHT22;39546;45.534;12.048;2022-12-29T14:37:03;12.00;89.10
53643;DHT22;39546;45.534;12.048;2022-12-29T14:43:25;12.00;89.00
53643;DHT22;39546;45.534;12.048;2022-12-29T14:49:31;11.90;89.00
53643;DHT22;39546;45.534;12.048;2022-12-29T14:55:41;11.80;89.20
53643;DHT22;39546;45.534;12.048;2022-12-29T15:02:13;11.70;89.20
53643;DHT22;39546;45.534;12.048;2022-12-29T15:08:22;11.70;89.40
53643;DHT22;39546;45.534;12.048;2022-12-29T15:20:35;11.80;89.20
53643;DHT22;39546;45.534;12.048;2022-12-29T15:26:50;12.00;89.10
53643;DHT22;39546;45.534;12.048;2022-12-29T15:32:58;12.10;88.80
53643;DHT22;39546;45.534;12.048;2022-12-29T15:39:23;12.20;88.70
53643;DHT22;39546;45.534;12.048;2022-12-29T15:45:33;12.20;88.60
53643;DHT22;39546;45.534;12.048;2022-12-29T15:51:38;12.20;88.50
53643;DHT22;39546;45.534;12.048;2022-12-29T15:57:42;12.20;88.30
53643;DHT22;39546;45.534;12.048;2022-12-29T16:03:45;12.20;88.40
53643;DHT22;39546;45.534;12.048;2022-12-29T16:09:48;12.20;88.30
53643;DHT22;39546;45.534;12.048;2022-12-29T16:16:07;12.20;88.30
53643;DHT22;39546;45.534;12.048;2022-12-29T16:22:14;12.30;88.30
53643;DHT22;39546;45.534;12.048;2022-12-29T16:28:23;12.20;88.10
53643;DHT22;39546;45.534;12.048;2022-12-29T16:40:55;12.10;88.20
53643;DHT22;39546;45.534;12.048;2022-12-29T16:53:25;12.20;88.10
53643;DHT22;39546;45.534;12.048;2022-12-29T17:05:33;12.50;87.80
53643;DHT22;39546;45.534;12.048;2022-12-29T17:11:35;12.60;87.40
53643;DHT22;39546;45.534;12.048;2022-12-29T17:17:56;12.70;87.50
53643;DHT22;39546;45.534;12.048;2022-12-29T17:23:58;12.80;87.90
53643;DHT22;39546;45.534;12.048;2022-12-29T17:30:04;12.80;87.50
53643;DHT22;39546;45.534;12.048;2022-12-29T17:36:06;12.90;87.30
53643;DHT22;39546;45.534;12.048;2022-12-29T17:42:09;12.80;87.10
53643;DHT22;39546;45.534;12.048;2022-12-29T17:48:14;12.80;87.10
53643;DHT22;39546;45.534;12.048;2022-12-29T17:54:21;13.00;87.10
53643;DHT22;39546;45.534;12.048;2022-12-29T18:00:26;13.00;86.80
53643;DHT22;39546;45.534;12.048;2022-12-29T18:06:28;12.80;86.70
53643;DHT22;39546;45.534;12.048;2022-12-29T18:18:33;12.90;86.60
53643;DHT22;39546;45.534;12.048;2022-12-29T18:24:35;13.00;86.40
53643;DHT22;39546;45.534;12.048;2022-12-29T18:30:37;13.00;86.10
53643;DHT22;39546;45.534;12.048;2022-12-29T18:36:39;12.80;86.60
53643;DHT22;39546;45.534;12.048;2022-12-29T18:42:42;13.00;86.80
53643;DHT22;39546;45.534;12.048;2022-12-29T18:48:44;13.00;86.30
53643;DHT22;39546;45.534;12.048;2022-12-29T18:54:46;12.50;86.60
53643;DHT22;39546;45.534;12.048;2022-12-29T19:00:48;12.20;87.10
53643;DHT22;39546;45.534;12.048;2022-12-29T19:06:50;11.90;87.50
53643;DHT22;39546;45.534;12.048;2022-12-29T19:12:52;11.70;87.70
53643;DHT22;39546;45.534;12.048;2022-12-29T19:18:55;11.70;88.10
53643;DHT22;39546;45.534;12.048;2022-12-29T19:24:57;12.10;87.70
53643;DHT22;39546;45.534;12.048;2022-12-29T19:31:01;12.50;87.30
53643;DHT22;39546;45.534;12.048;2022-12-29T19:37:03;12.80;86.90
53643;DHT22;39546;45.534;12.048;2022-12-29T19:43:05;12.70;86.40
53643;DHT22;39546;45.534;12.048;2022-12-29T19:49:07;12.70;86.70
53643;DHT22;39546;45.534;12.048;2022-12-29T19:55:13;12.80;86.20
53643;DHT22;39546;45.534;12.048;2022-12-29T20:01:20;12.70;85.90
53643;DHT22;39546;45.534;12.048;2022-12-29T20:07:23;12.60;86.40
53643;DHT22;39546;45.534;12.048;2022-12-29T20:13:25;12.80;86.10
53643;DHT22;39546;45.534;12.048;2022-12-29T20:19:28;12.80;85.80
53643;DHT22;39546;45.534;12.048;2022-12-29T20:25:31;12.80;85.70
53643;DHT22;39546;45.534;12.048;2022-12-29T20:31:36;12.80;85.40
53643;DHT22;39546;45.534;12.048;2022-12-29T20:37:39;12.80;85.30
53643;DHT22;39546;45.534;12.048;2022-12-29T20:43:42;12.70;85.60
53643;DHT22;39546;45.534;12.048;2022-12-29T20:49:44;12.70;85.60
53643;DHT22;39546;45.534;12.048;2022-12-29T20:55:48;12.60;85.60
53643;DHT22;39546;45.534;12.048;2022-12-29T21:01:51;12.40;85.80
53643;DHT22;39546;45.534;12.048;2022-12-29T21:07:54;12.20;86.10
53643;DHT22;39546;45.534;12.048;2022-12-29T21:13:57;12.20;86.60
53643;DHT22;39546;45.534;12.048;2022-12-29T21:20:00;12.50;86.30
53643;DHT22;39546;45.534;12.048;2022-12-29T21:26:06;12.60;85.90
53643;DHT22;39546;45.534;12.048;2022-12-29T21:32:09;12.70;86.10
53643;DHT22;39546;45.534;12.048;2022-12-29T21:38:12;12.70;85.90
53643;DHT22;39546;45.534;12.048;2022-12-29T21:44:14;12.70;85.90
53643;DHT22;39546;45.534;12.048;2022-12-29T21:50:44;12.70;85.90
53643;DHT22;39546;45.534;12.048;2022-12-29T21:57:05;12.70;85.90
53643;DHT22;39546;45.534;12.048;2022-12-29T22:03:08;12.70;86.20
53643;DHT22;39546;45.534;12.048;2022-12-29T22:09:29;12.70;86.30
53643;DHT22;39546;45.534;12.048;2022-12-29T22:15:50;12.60;86.10
53643;DHT22;39546;45.534;12.048;2022-12-29T22:21:52;12.50;86.10
53643;DHT22;39546;45.534;12.048;2022-12-29T22:27:54;12.40;85.90
53643;DHT22;39546;45.534;12.048;2022-12-29T22:33:58;12.30;86.10
53643;DHT22;39546;45.534;12.048;2022-12-29T22:40:00;12.50;86.10
53643;DHT22;39546;45.534;12.048;2022-12-29T22:46:03;12.40;86.00
53643;DHT22;39546;45.534;12.048;2022-12-29T22:52:08;12.40;86.00
53643;DHT22;39546;45.534;12.048;2022-12-29T22:58:10;12.50;86.10
53643;DHT22;39546;45.534;12.048;2022-12-29T23:04:12;12.40;85.90
53643;DHT22;39546;45.534;12.048;2022-12-29T23:10:14;12.10;86.00
53643;DHT22;39546;45.534;12.048;2022-12-29T23:16:17;11.70;86.60
53643;DHT22;39546;45.534;12.048;2022-12-29T23:22:19;11.70;86.80
53643;DHT22;39546;45.534;12.048;2022-12-29T23:28:42;11.70;86.80
53643;DHT22;39546;45.534;12.048;2022-12-29T23:34:45;11.80;86.80
53643;DHT22;39546;45.534;12.048;2022-12-29T23:40:47;12.00;86.80
53643;DHT22;39546;45.534;12.048;2022-12-29T23:46:49;12.10;86.50
53643;DHT22;39546;45.534;12.048;2022-12-29T23:52:51;11.90;86.40
53643;DHT22;39546;45.534;12.048;2022-12-29T23:58:53;11.70;86.70
